1990 MIKE (1990310N07152)


On this page: IBTrACS data - Map and Plots - Positions - Intensities - Original source data

Summary

Start Nov 6
End Nov 18
Basin WP
LMI 150 kt
Sources jtwc_wp
tokyo
cma
hko
In WMO? Yes
Previous storm 1990 PAGE (WP)
Previous in basin 1990 PAGE (WP)
Concurrent storms 1990 PAGE (WP)
1990 MIKE (WP)
1990 NELL (WP)
1990 MISSING (NI)
1990 OWEN (EP)
1990 MISSING (NI)
Next in basin 1990 NELL (WP)
Next storm 1990 NELL (WP)

top of page IBTrACS Data: File Access

top of page HURSAT Data: File Access

Image of storm

top of page Plots:

Map of storm track will not appear if FTP is down
Time series of cyclone Maximum Sustained Wind will not appear if FTP is down
Time series of cyclone Minimum Central Pressure will not appear if FTP is down

top of page Track Data:Position

jtwc_wp tokyo cma hko
Date Lat Lon Lat Lon Lat Lon Lat Lon
1990-11-06 00:00:00 6.5 151.9
1990-11-06 06:00:00 6.3 150.8 6.7 151.0
1990-11-06 12:00:00 6.2 149.6 6.0 151.0 6.0 151.5 6.3 150.0
1990-11-06 18:00:00 6.4 148.4 6.2 149.8 6.0 150.0 5.7 148.6
1990-11-07 00:00:00 6.7 147.3 6.5 148.5 6.0 148.5 5.9 147.1
1990-11-07 06:00:00 7.1 146.5 6.7 147.2 6.0 147.0 6.4 146.2
1990-11-07 12:00:00 7.4 145.7 7.0 146.0 6.3 145.5 6.9 145.4
1990-11-07 18:00:00 7.6 144.7 7.2 144.8 6.8 144.5 7.4 144.6
1990-11-08 00:00:00 7.8 143.8 7.5 143.5 7.5 143.5 7.8 143.8
1990-11-08 06:00:00 8.1 142.9 7.8 142.6 7.8 142.9 8.1 142.9
1990-11-08 12:00:00 8.4 141.8 8.1 141.6 8.3 141.9 8.5 142.0
1990-11-08 18:00:00 8.6 140.7 8.4 140.6 8.9 140.8 8.7 141.1
1990-11-09 00:00:00 8.7 139.6 8.8 139.7 8.9 139.7 9.0 139.8
1990-11-09 06:00:00 8.7 138.4 8.8 138.7 8.9 138.5 8.9 138.5
1990-11-09 12:00:00 8.7 137.4 8.8 137.7 8.9 137.7 8.8 137.7
1990-11-09 18:00:00 8.6 136.6 8.7 136.9 8.9 136.6 8.7 136.9
1990-11-10 00:00:00 8.3 135.8 8.5 136.0 8.6 135.9 8.4 135.9
1990-11-10 06:00:00 8.0 135.2 8.2 135.2 8.2 135.2 7.9 135.1
1990-11-10 12:00:00 7.9 134.7 7.9 134.8 7.9 134.8 7.9 134.8
1990-11-10 18:00:00 7.9 134.1 7.9 134.2 7.9 134.2 8.0 134.2
1990-11-11 00:00:00 8.1 133.5 8.1 133.7 7.9 133.7 8.1 133.5
1990-11-11 06:00:00 8.4 132.7 8.3 132.8 8.2 132.8 8.4 132.7
1990-11-11 12:00:00 8.8 131.7 8.8 131.6 8.8 131.6 8.8 131.6
1990-11-11 18:00:00 9.1 130.5 9.1 130.6 9.1 130.6 9.1 130.4
1990-11-12 00:00:00 9.4 129.2 9.4 129.3 9.5 129.3 9.5 129.2
jtwc_wp tokyo cma hko
1990-11-12 06:00:00 9.7 127.8 9.6 128.2 9.7 128.1 9.8 128.0
1990-11-12 12:00:00 10.1 126.3 10.1 126.6 10.2 126.6 10.1 126.7
1990-11-12 18:00:00 10.4 124.7 10.3 125.0 10.6 124.8 10.4 124.9
1990-11-13 00:00:00 10.6 123.0 10.6 123.4 10.6 123.2 10.6 123.4
1990-11-13 06:00:00 10.9 121.5 10.8 122.2 10.9 121.2 10.8 121.8
1990-11-13 12:00:00 11.4 120.2 11.7 120.8 11.1 119.9 11.2 120.2
1990-11-13 18:00:00 12.2 119.2 12.2 119.1 11.7 118.9 12.3 119.0
1990-11-14 00:00:00 13.0 117.6 12.8 117.6 12.4 117.9 12.8 117.5
1990-11-14 06:00:00 13.3 115.7 13.0 116.2 13.4 115.4 13.2 115.6
1990-11-14 12:00:00 13.5 114.2 13.3 114.7 13.6 113.9 13.5 113.8
1990-11-14 18:00:00 13.6 113.0 13.6 113.2 13.6 112.6 13.7 112.8
1990-11-15 00:00:00 13.8 112.0 13.8 111.8 13.8 112.0 13.9 111.9
1990-11-15 06:00:00 14.2 111.2 14.1 111.2 14.1 111.0 14.2 111.1
1990-11-15 12:00:00 14.6 110.5 14.7 110.5 14.6 110.5 14.6 110.5
1990-11-15 18:00:00 15.2 110.1 15.2 110.1 15.2 109.7 15.2 110.0
1990-11-16 00:00:00 15.8 109.9 15.8 109.9 15.8 109.4 15.9 109.7
1990-11-16 06:00:00 16.5 109.7 16.6 109.8 16.6 109.8 16.7 109.6
1990-11-16 12:00:00 17.3 109.4 17.2 109.6 17.3 109.6 17.5 109.5
1990-11-16 18:00:00 18.2 109.1 18.0 109.3 18.0 109.4 18.3 109.0
1990-11-17 00:00:00 18.9 108.9 19.4 108.4 19.3 108.4 19.2 108.5
1990-11-17 06:00:00 19.6 108.6 20.0 108.3 20.2 108.0 19.8 108.4
1990-11-17 12:00:00 20.1 108.5 20.4 108.3 20.5 108.0 20.3 108.3
1990-11-17 18:00:00 20.6 108.2 20.8 108.2 20.5 108.0 20.6 108.2
1990-11-18 00:00:00 21.2 107.9 21.2 107.8 21.1 108.0
jtwc_wp tokyo cma hko
1990-11-18 06:00:00 21.8 107.5 21.6 107.4 21.1 108.0
1990-11-18 12:00:00 22.4 107.0 22.0 107.0

top of pageTrack Data:Intensity

jtwc_wp tokyo cma hko
Date Wind Pres Wind Pres Wind Pres Wind Pres
1990-11-06 00:00:00 15.
1990-11-06 06:00:00 20. 25. 1000.
1990-11-06 12:00:00 20. 1004. 19. 1004. 25. 1000.
1990-11-06 18:00:00 20. 1002. 23. 1002. 30. 995.
1990-11-07 00:00:00 20. 1002. 23. 1002. 30. 995.
1990-11-07 06:00:00 20. 1000. 29. 1000. 30. 995.
1990-11-07 12:00:00 25. 1000. 29. 1000. 30. 995.
1990-11-07 18:00:00 30. 35. 998. 29. 1000. 35. 990.
1990-11-08 00:00:00 35. 40. 994. 39. 998. 40. 990.
1990-11-08 06:00:00 40. 50. 990. 49. 990. 45. 985.
1990-11-08 12:00:00 45. 50. 985. 49. 990. 50. 980.
1990-11-08 18:00:00 55. 55. 980. 49. 985. 55. 975.
1990-11-09 00:00:00 70. 60. 975. 58. 980. 60. 970.
1990-11-09 06:00:00 80. 65. 970. 68. 970. 65. 965.
1990-11-09 12:00:00 90. 70. 965. 68. 970. 65. 965.
1990-11-09 18:00:00 100. 75. 960. 78. 960. 70. 960.
1990-11-10 00:00:00 110. 75. 955. 78. 960. 85. 945.
1990-11-10 06:00:00 120. 80. 950. 87. 950. 100. 930.
1990-11-10 12:00:00 135. 85. 940. 87. 950. 110. 920.
1990-11-10 18:00:00 150. 95. 925. 97. 940. 115. 915.
1990-11-11 00:00:00 150. 100. 915. 117. 930. 120. 910.
1990-11-11 06:00:00 150. 100. 915. 136. 920. 120. 910.
1990-11-11 12:00:00 150. 100. 915. 146. 910. 120. 910.
1990-11-11 18:00:00 145. 100. 920. 146. 910. 110. 920.
1990-11-12 00:00:00 140. 95. 925. 146. 910. 105. 925.
jtwc_wp tokyo cma hko
1990-11-12 06:00:00 135. 95. 930. 136. 920. 95. 935.
1990-11-12 12:00:00 130. 90. 935. 126. 925. 85. 945.
1990-11-12 18:00:00 120. 85. 945. 107. 935. 75. 955.
1990-11-13 00:00:00 105. 75. 960. 87. 950. 60. 965.
1990-11-13 06:00:00 95. 70. 965. 87. 950. 60. 965.
1990-11-13 12:00:00 85. 65. 970. 87. 950. 60. 965.
1990-11-13 18:00:00 80. 75. 960. 78. 960. 65. 960.
1990-11-14 00:00:00 75. 75. 955. 78. 960. 70. 955.
1990-11-14 06:00:00 80. 75. 955. 78. 965. 70. 955.
1990-11-14 12:00:00 85. 75. 960. 78. 965. 70. 955.
1990-11-14 18:00:00 85. 70. 965. 68. 970. 65. 960.
1990-11-15 00:00:00 85. 65. 970. 68. 970. 65. 960.
1990-11-15 06:00:00 85. 60. 975. 68. 970. 60. 965.
1990-11-15 12:00:00 80. 55. 980. 68. 970. 60. 965.
1990-11-15 18:00:00 75. 50. 985. 68. 970. 60. 970.
1990-11-16 00:00:00 70. 45. 990. 68. 970. 55. 975.
1990-11-16 06:00:00 65. 45. 992. 68. 970. 50. 985.
1990-11-16 12:00:00 55. 40. 994. 58. 980. 50. 985.
1990-11-16 18:00:00 45. 40. 996. 58. 980. 50. 985.
1990-11-17 00:00:00 35. 35. 998. 49. 985. 40. 995.
1990-11-17 06:00:00 35. 35. 998. 49. 990. 40. 995.
1990-11-17 12:00:00 30. 35. 1000. 39. 995. 35. 1000.
1990-11-17 18:00:00 30. 1004. 29. 998. 35. 1000.
1990-11-18 00:00:00 30. 1006. 29. 1002.
jtwc_wp tokyo cma hko
1990-11-18 06:00:00 25. 1008. 23. 1005.
1990-11-18 12:00:00 20. 1010.

top of page Links to source data

Source Source file Format
jtwc_wp bwp271990.txt ATCF
tokyo bst_all.txt:Line=39469:MIKE:9025 JMA text table
cma CH1990BST.txt:Storm=33:Mike CMA text table
hko tc-besttrack-data.txt:Line=21138:MIKE HKO Text table